sensor_id;sensor_type;location;lat;lon;timestamp;P1;durP1;ratioP1;P2;durP2;ratioP2
20649;SDS011;10484;48.736;9.332;2022-07-21T00:00:01;0.40;;;0.27;;
20649;SDS011;10484;48.736;9.332;2022-07-21T00:02:31;0.40;;;0.30;;
20649;SDS011;10484;48.736;9.332;2022-07-21T00:04:56;0.40;;;0.30;;
20649;SDS011;10484;48.736;9.332;2022-07-21T00:07:22;1.50;;;1.03;;
20649;SDS011;10484;48.736;9.332;2022-07-21T00:09:48;0.60;;;0.50;;
20649;SDS011;10484;48.736;9.332;2022-07-21T00:12:14;0.40;;;0.40;;
20649;SDS011;10484;48.736;9.332;2022-07-21T00:14:39;0.40;;;0.40;;
20649;SDS011;10484;48.736;9.332;2022-07-21T00:17:05;0.40;;;0.20;;
20649;SDS011;10484;48.736;9.332;2022-07-21T00:19:31;0.40;;;0.20;;
20649;SDS011;10484;48.736;9.332;2022-07-21T00:21:56;0.50;;;0.20;;
20649;SDS011;10484;48.736;9.332;2022-07-21T00:24:22;2.07;;;0.60;;
20649;SDS011;10484;48.736;9.332;2022-07-21T00:26:48;0.40;;;0.20;;
20649;SDS011;10484;48.736;9.332;2022-07-21T00:29:13;0.40;;;0.30;;
20649;SDS011;10484;48.736;9.332;2022-07-21T00:31:39;0.33;;;0.23;;
20649;SDS011;10484;48.736;9.332;2022-07-21T00:34:04;0.33;;;0.30;;
20649;SDS011;10484;48.736;9.332;2022-07-21T00:36:30;3.70;;;2.97;;
20649;SDS011;10484;48.736;9.332;2022-07-21T00:38:56;0.40;;;0.40;;
20649;SDS011;10484;48.736;9.332;2022-07-21T00:41:21;0.40;;;0.30;;
20649;SDS011;10484;48.736;9.332;2022-07-21T00:43:47;0.47;;;0.30;;
20649;SDS011;10484;48.736;9.332;2022-07-21T00:46:13;0.30;;;0.20;;
20649;SDS011;10484;48.736;9.332;2022-07-21T00:48:38;0.40;;;0.30;;
20649;SDS011;10484;48.736;9.332;2022-07-21T00:51:04;0.57;;;0.57;;
20649;SDS011;10484;48.736;9.332;2022-07-21T00:53:30;0.30;;;0.20;;
20649;SDS011;10484;48.736;9.332;2022-07-21T00:55:56;0.50;;;0.40;;
20649;SDS011;10484;48.736;9.332;2022-07-21T00:58:24;0.83;;;0.63;;
20649;SDS011;10484;48.736;9.332;2022-07-21T01:00:50;0.77;;;0.77;;
20649;SDS011;10484;48.736;9.332;2022-07-21T01:03:16;0.43;;;0.40;;
20649;SDS011;10484;48.736;9.332;2022-07-21T01:05:42;0.40;;;0.30;;
20649;SDS011;10484;48.736;9.332;2022-07-21T01:08:07;0.40;;;0.20;;
20649;SDS011;10484;48.736;9.332;2022-07-21T01:10:33;0.47;;;0.40;;
20649;SDS011;10484;48.736;9.332;2022-07-21T01:13:00;0.80;;;0.67;;
20649;SDS011;10484;48.736;9.332;2022-07-21T01:15:51;0.40;;;0.30;;
20649;SDS011;10484;48.736;9.332;2022-07-21T01:18:17;0.30;;;0.20;;
20649;SDS011;10484;48.736;9.332;2022-07-21T01:20:44;0.40;;;0.20;;
20649;SDS011;10484;48.736;9.332;2022-07-21T01:23:17;0.40;;;0.20;;
20649;SDS011;10484;48.736;9.332;2022-07-21T01:25:46;0.70;;;0.70;;
20649;SDS011;10484;48.736;9.332;2022-07-21T01:28:13;0.30;;;0.20;;
20649;SDS011;10484;48.736;9.332;2022-07-21T01:30:39;2.30;;;2.10;;
20649;SDS011;10484;48.736;9.332;2022-07-21T01:33:05;0.37;;;0.20;;
20649;SDS011;10484;48.736;9.332;2022-07-21T01:35:30;0.93;;;0.93;;
20649;SDS011;10484;48.736;9.332;2022-07-21T01:37:56;1.80;;;1.70;;
20649;SDS011;10484;48.736;9.332;2022-07-21T01:40:24;0.40;;;0.20;;
20649;SDS011;10484;48.736;9.332;2022-07-21T01:43:08;0.40;;;0.30;;
20649;SDS011;10484;48.736;9.332;2022-07-21T01:45:34;1.23;;;1.23;;
20649;SDS011;10484;48.736;9.332;2022-07-21T01:47:59;0.53;;;0.53;;
20649;SDS011;10484;48.736;9.332;2022-07-21T01:50:25;0.77;;;0.73;;
20649;SDS011;10484;48.736;9.332;2022-07-21T01:52:52;0.60;;;0.37;;
20649;SDS011;10484;48.736;9.332;2022-07-21T01:55:19;0.40;;;0.20;;
20649;SDS011;10484;48.736;9.332;2022-07-21T01:57:45;0.40;;;0.20;;
20649;SDS011;10484;48.736;9.332;2022-07-21T02:00:11;0.37;;;0.30;;
20649;SDS011;10484;48.736;9.332;2022-07-21T02:02:37;0.50;;;0.50;;
20649;SDS011;10484;48.736;9.332;2022-07-21T02:05:03;15.27;;;3.20;;
20649;SDS011;10484;48.736;9.332;2022-07-21T02:07:29;0.93;;;0.93;;
20649;SDS011;10484;48.736;9.332;2022-07-21T02:09:54;0.40;;;0.30;;
20649;SDS011;10484;48.736;9.332;2022-07-21T02:12:20;0.40;;;0.30;;
20649;SDS011;10484;48.736;9.332;2022-07-21T02:14:46;0.47;;;0.47;;
20649;SDS011;10484;48.736;9.332;2022-07-21T02:17:11;0.40;;;0.30;;
20649;SDS011;10484;48.736;9.332;2022-07-21T02:19:37;5.30;;;1.03;;
20649;SDS011;10484;48.736;9.332;2022-07-21T02:22:02;0.80;;;0.80;;
20649;SDS011;10484;48.736;9.332;2022-07-21T02:24:28;2.83;;;2.73;;
20649;SDS011;10484;48.736;9.332;2022-07-21T02:26:54;0.30;;;0.30;;
20649;SDS011;10484;48.736;9.332;2022-07-21T02:29:19;0.40;;;0.20;;
20649;SDS011;10484;48.736;9.332;2022-07-21T02:31:45;0.40;;;0.30;;
20649;SDS011;10484;48.736;9.332;2022-07-21T02:34:11;0.40;;;0.30;;
20649;SDS011;10484;48.736;9.332;2022-07-21T02:36:36;0.37;;;0.20;;
20649;SDS011;10484;48.736;9.332;2022-07-21T02:39:02;0.40;;;0.23;;
20649;SDS011;10484;48.736;9.332;2022-07-21T02:41:28;0.40;;;0.20;;
20649;SDS011;10484;48.736;9.332;2022-07-21T02:43:53;0.40;;;0.20;;
20649;SDS011;10484;48.736;9.332;2022-07-21T02:46:19;0.40;;;0.40;;
20649;SDS011;10484;48.736;9.332;2022-07-21T02:48:44;1.90;;;0.87;;
20649;SDS011;10484;48.736;9.332;2022-07-21T02:51:10;0.73;;;0.73;;
20649;SDS011;10484;48.736;9.332;2022-07-21T02:53:36;0.30;;;0.20;;
20649;SDS011;10484;48.736;9.332;2022-07-21T02:56:01;0.50;;;0.50;;
20649;SDS011;10484;48.736;9.332;2022-07-21T02:58:27;1.47;;;1.37;;
20649;SDS011;10484;48.736;9.332;2022-07-21T03:00:55;2.40;;;2.30;;
20649;SDS011;10484;48.736;9.332;2022-07-21T03:03:24;0.50;;;0.50;;
20649;SDS011;10484;48.736;9.332;2022-07-21T03:05:51;0.40;;;0.40;;
20649;SDS011;10484;48.736;9.332;2022-07-21T03:08:18;1.47;;;1.37;;
20649;SDS011;10484;48.736;9.332;2022-07-21T03:10:44;1.33;;;1.13;;
20649;SDS011;10484;48.736;9.332;2022-07-21T03:13:10;0.30;;;0.20;;
20649;SDS011;10484;48.736;9.332;2022-07-21T03:15:36;0.40;;;0.30;;
20649;SDS011;10484;48.736;9.332;2022-07-21T03:18:02;0.43;;;0.40;;
20649;SDS011;10484;48.736;9.332;2022-07-21T03:20:29;0.40;;;0.40;;
20649;SDS011;10484;48.736;9.332;2022-07-21T03:22:56;0.70;;;0.67;;
20649;SDS011;10484;48.736;9.332;2022-07-21T03:25:23;0.33;;;0.20;;
20649;SDS011;10484;48.736;9.332;2022-07-21T03:27:49;0.40;;;0.20;;
20649;SDS011;10484;48.736;9.332;2022-07-21T03:30:15;1.00;;;1.00;;
20649;SDS011;10484;48.736;9.332;2022-07-21T03:32:41;0.40;;;0.30;;
20649;SDS011;10484;48.736;9.332;2022-07-21T03:35:08;2.50;;;2.40;;
20649;SDS011;10484;48.736;9.332;2022-07-21T03:37:45;0.30;;;0.20;;
20649;SDS011;10484;48.736;9.332;2022-07-21T03:40:20;0.30;;;0.20;;
20649;SDS011;10484;48.736;9.332;2022-07-21T03:42:53;4.33;;;0.80;;
20649;SDS011;10484;48.736;9.332;2022-07-21T03:45:19;0.30;;;0.20;;
20649;SDS011;10484;48.736;9.332;2022-07-21T03:47:45;0.70;;;0.70;;
20649;SDS011;10484;48.736;9.332;2022-07-21T03:50:12;1.27;;;0.97;;
20649;SDS011;10484;48.736;9.332;2022-07-21T03:52:38;0.30;;;0.20;;
20649;SDS011;10484;48.736;9.332;2022-07-21T03:55:04;0.40;;;0.40;;
20649;SDS011;10484;48.736;9.332;2022-07-21T03:57:34;0.40;;;0.37;;
20649;SDS011;10484;48.736;9.332;2022-07-21T04:00:01;0.30;;;0.23;;
20649;SDS011;10484;48.736;9.332;2022-07-21T04:02:27;0.30;;;0.20;;
20649;SDS011;10484;48.736;9.332;2022-07-21T04:04:53;0.40;;;0.20;;
20649;SDS011;10484;48.736;9.332;2022-07-21T04:07:19;0.53;;;0.53;;
20649;SDS011;10484;48.736;9.332;2022-07-21T04:09:45;0.40;;;0.20;;
20649;SDS011;10484;48.736;9.332;2022-07-21T04:12:10;0.40;;;0.20;;
20649;SDS011;10484;48.736;9.332;2022-07-21T04:14:36;0.70;;;0.70;;
20649;SDS011;10484;48.736;9.332;2022-07-21T04:17:02;0.40;;;0.30;;
20649;SDS011;10484;48.736;9.332;2022-07-21T04:19:27;0.57;;;0.53;;
20649;SDS011;10484;48.736;9.332;2022-07-21T04:21:54;0.40;;;0.30;;
20649;SDS011;10484;48.736;9.332;2022-07-21T04:24:19;0.40;;;0.40;;
20649;SDS011;10484;48.736;9.332;2022-07-21T04:26:45;0.30;;;0.20;;
20649;SDS011;10484;48.736;9.332;2022-07-21T04:29:11;0.30;;;0.30;;
20649;SDS011;10484;48.736;9.332;2022-07-21T04:31:36;0.30;;;0.20;;
20649;SDS011;10484;48.736;9.332;2022-07-21T04:34:02;0.50;;;0.50;;
20649;SDS011;10484;48.736;9.332;2022-07-21T04:36:28;0.30;;;0.30;;
20649;SDS011;10484;48.736;9.332;2022-07-21T04:38:53;0.30;;;0.20;;
20649;SDS011;10484;48.736;9.332;2022-07-21T04:41:19;0.60;;;0.60;;
20649;SDS011;10484;48.736;9.332;2022-07-21T04:43:45;2.20;;;2.10;;
20649;SDS011;10484;48.736;9.332;2022-07-21T04:46:10;0.30;;;0.20;;
20649;SDS011;10484;48.736;9.332;2022-07-21T04:48:36;0.40;;;0.30;;
20649;SDS011;10484;48.736;9.332;2022-07-21T04:51:02;0.67;;;0.67;;
20649;SDS011;10484;48.736;9.332;2022-07-21T04:53:27;0.33;;;0.20;;
20649;SDS011;10484;48.736;9.332;2022-07-21T04:55:53;0.30;;;0.20;;
20649;SDS011;10484;48.736;9.332;2022-07-21T04:58:19;0.40;;;0.30;;
20649;SDS011;10484;48.736;9.332;2022-07-21T05:00:44;0.40;;;0.40;;
20649;SDS011;10484;48.736;9.332;2022-07-21T05:03:10;0.40;;;0.30;;
20649;SDS011;10484;48.736;9.332;2022-07-21T05:05:38;0.70;;;0.53;;
20649;SDS011;10484;48.736;9.332;2022-07-21T05:08:04;0.30;;;0.20;;
20649;SDS011;10484;48.736;9.332;2022-07-21T05:10:30;0.80;;;0.60;;
20649;SDS011;10484;48.736;9.332;2022-07-21T05:12:55;0.40;;;0.30;;
20649;SDS011;10484;48.736;9.332;2022-07-21T05:15:21;0.30;;;0.20;;
20649;SDS011;10484;48.736;9.332;2022-07-21T05:17:46;0.30;;;0.20;;
20649;SDS011;10484;48.736;9.332;2022-07-21T05:20:12;0.30;;;0.30;;
20649;SDS011;10484;48.736;9.332;2022-07-21T05:22:38;0.40;;;0.20;;
20649;SDS011;10484;48.736;9.332;2022-07-21T05:25:04;1.13;;;1.13;;
20649;SDS011;10484;48.736;9.332;2022-07-21T05:27:31;3.70;;;3.40;;
20649;SDS011;10484;48.736;9.332;2022-07-21T05:29:57;0.30;;;0.20;;
20649;SDS011;10484;48.736;9.332;2022-07-21T05:32:23;2.20;;;1.03;;
20649;SDS011;10484;48.736;9.332;2022-07-21T05:34:48;0.30;;;0.20;;
20649;SDS011;10484;48.736;9.332;2022-07-21T05:37:14;0.30;;;0.30;;
20649;SDS011;10484;48.736;9.332;2022-07-21T05:39:40;0.50;;;0.50;;
20649;SDS011;10484;48.736;9.332;2022-07-21T05:42:05;0.50;;;0.50;;
20649;SDS011;10484;48.736;9.332;2022-07-21T05:44:31;0.30;;;0.30;;
20649;SDS011;10484;48.736;9.332;2022-07-21T05:46:57;0.30;;;0.20;;
20649;SDS011;10484;48.736;9.332;2022-07-21T05:49:22;0.30;;;0.30;;
20649;SDS011;10484;48.736;9.332;2022-07-21T05:51:48;1.10;;;0.83;;
20649;SDS011;10484;48.736;9.332;2022-07-21T05:54:14;1.50;;;1.50;;
20649;SDS011;10484;48.736;9.332;2022-07-21T05:56:40;0.40;;;0.30;;
20649;SDS011;10484;48.736;9.332;2022-07-21T05:59:05;0.30;;;0.20;;
20649;SDS011;10484;48.736;9.332;2022-07-21T06:01:31;0.53;;;0.40;;
20649;SDS011;10484;48.736;9.332;2022-07-21T06:03:57;1.23;;;1.07;;
20649;SDS011;10484;48.736;9.332;2022-07-21T06:06:22;0.30;;;0.20;;
20649;SDS011;10484;48.736;9.332;2022-07-21T06:08:48;0.30;;;0.20;;
20649;SDS011;10484;48.736;9.332;2022-07-21T06:11:16;0.50;;;0.50;;
20649;SDS011;10484;48.736;9.332;2022-07-21T06:13:43;0.30;;;0.20;;
20649;SDS011;10484;48.736;9.332;2022-07-21T06:16:10;0.40;;;0.40;;
20649;SDS011;10484;48.736;9.332;2022-07-21T06:18:36;0.30;;;0.20;;
20649;SDS011;10484;48.736;9.332;2022-07-21T06:21:02;0.80;;;0.80;;
20649;SDS011;10484;48.736;9.332;2022-07-21T06:23:28;0.40;;;0.40;;
20649;SDS011;10484;48.736;9.332;2022-07-21T06:25:54;0.30;;;0.20;;
20649;SDS011;10484;48.736;9.332;2022-07-21T06:28:20;0.30;;;0.20;;
20649;SDS011;10484;48.736;9.332;2022-07-21T06:30:46;0.30;;;0.30;;
20649;SDS011;10484;48.736;9.332;2022-07-21T06:33:12;0.43;;;0.43;;
20649;SDS011;10484;48.736;9.332;2022-07-21T06:35:38;0.30;;;0.30;;
20649;SDS011;10484;48.736;9.332;2022-07-21T06:38:04;0.30;;;0.20;;
20649;SDS011;10484;48.736;9.332;2022-07-21T06:40:30;0.50;;;0.50;;
20649;SDS011;10484;48.736;9.332;2022-07-21T06:42:56;0.30;;;0.20;;
20649;SDS011;10484;48.736;9.332;2022-07-21T06:45:23;0.40;;;0.40;;
20649;SDS011;10484;48.736;9.332;2022-07-21T06:47:49;0.40;;;0.30;;
20649;SDS011;10484;48.736;9.332;2022-07-21T06:50:15;0.40;;;0.40;;
20649;SDS011;10484;48.736;9.332;2022-07-21T06:52:41;1.33;;;1.33;;
20649;SDS011;10484;48.736;9.332;2022-07-21T06:55:07;0.33;;;0.27;;
20649;SDS011;10484;48.736;9.332;2022-07-21T06:57:34;0.60;;;0.50;;
20649;SDS011;10484;48.736;9.332;2022-07-21T07:00:02;0.30;;;0.20;;
20649;SDS011;10484;48.736;9.332;2022-07-21T07:02:29;0.30;;;0.20;;
20649;SDS011;10484;48.736;9.332;2022-07-21T07:04:55;0.90;;;0.90;;
20649;SDS011;10484;48.736;9.332;2022-07-21T07:07:21;1.90;;;0.83;;
20649;SDS011;10484;48.736;9.332;2022-07-21T07:09:46;0.30;;;0.20;;
20649;SDS011;10484;48.736;9.332;2022-07-21T07:12:13;0.40;;;0.20;;
20649;SDS011;10484;48.736;9.332;2022-07-21T07:14:38;0.57;;;0.57;;
20649;SDS011;10484;48.736;9.332;2022-07-21T07:17:04;0.30;;;0.20;;
20649;SDS011;10484;48.736;9.332;2022-07-21T07:19:30;0.60;;;0.60;;
20649;SDS011;10484;48.736;9.332;2022-07-21T07:21:55;0.40;;;0.30;;
20649;SDS011;10484;48.736;9.332;2022-07-21T07:24:21;1.10;;;1.00;;
20649;SDS011;10484;48.736;9.332;2022-07-21T07:26:47;1.03;;;1.00;;
20649;SDS011;10484;48.736;9.332;2022-07-21T07:29:13;1.00;;;1.00;;
20649;SDS011;10484;48.736;9.332;2022-07-21T07:31:39;0.40;;;0.30;;
20649;SDS011;10484;48.736;9.332;2022-07-21T07:34:05;0.40;;;0.20;;
20649;SDS011;10484;48.736;9.332;2022-07-21T07:36:31;0.30;;;0.30;;
20649;SDS011;10484;48.736;9.332;2022-07-21T07:38:58;0.30;;;0.20;;
20649;SDS011;10484;48.736;9.332;2022-07-21T07:41:24;0.40;;;0.20;;
20649;SDS011;10484;48.736;9.332;2022-07-21T07:43:50;0.30;;;0.20;;
20649;SDS011;10484;48.736;9.332;2022-07-21T07:46:17;0.30;;;0.20;;
20649;SDS011;10484;48.736;9.332;2022-07-21T07:48:44;0.30;;;0.20;;
20649;SDS011;10484;48.736;9.332;2022-07-21T07:51:10;0.40;;;0.20;;
20649;SDS011;10484;48.736;9.332;2022-07-21T07:53:37;0.40;;;0.30;;
20649;SDS011;10484;48.736;9.332;2022-07-21T07:56:04;0.60;;;0.60;;
20649;SDS011;10484;48.736;9.332;2022-07-21T07:58:30;0.40;;;0.20;;
20649;SDS011;10484;48.736;9.332;2022-07-21T08:00:56;0.40;;;0.20;;
20649;SDS011;10484;48.736;9.332;2022-07-21T08:03:22;0.77;;;0.40;;
20649;SDS011;10484;48.736;9.332;2022-07-21T08:05:49;0.30;;;0.20;;
20649;SDS011;10484;48.736;9.332;2022-07-21T08:08:15;0.40;;;0.30;;
20649;SDS011;10484;48.736;9.332;2022-07-21T08:10:42;1.90;;;1.80;;
20649;SDS011;10484;48.736;9.332;2022-07-21T08:13:11;0.53;;;0.53;;
20649;SDS011;10484;48.736;9.332;2022-07-21T08:15:38;2.07;;;1.97;;
20649;SDS011;10484;48.736;9.332;2022-07-21T08:18:05;0.40;;;0.30;;
20649;SDS011;10484;48.736;9.332;2022-07-21T08:20:32;0.30;;;0.23;;
20649;SDS011;10484;48.736;9.332;2022-07-21T08:22:58;0.60;;;0.60;;
20649;SDS011;10484;48.736;9.332;2022-07-21T08:25:24;0.73;;;0.67;;
20649;SDS011;10484;48.736;9.332;2022-07-21T08:27:50;0.30;;;0.30;;
20649;SDS011;10484;48.736;9.332;2022-07-21T08:30:15;0.40;;;0.30;;
20649;SDS011;10484;48.736;9.332;2022-07-21T08:32:41;0.40;;;0.20;;
20649;SDS011;10484;48.736;9.332;2022-07-21T08:35:07;0.40;;;0.20;;
20649;SDS011;10484;48.736;9.332;2022-07-21T08:37:37;0.60;;;0.57;;
20649;SDS011;10484;48.736;9.332;2022-07-21T08:40:08;0.40;;;0.20;;
20649;SDS011;10484;48.736;9.332;2022-07-21T08:42:35;6.37;;;5.87;;
20649;SDS011;10484;48.736;9.332;2022-07-21T08:45:01;11.57;;;9.73;;
20649;SDS011;10484;48.736;9.332;2022-07-21T08:47:28;11.93;;;9.30;;
20649;SDS011;10484;48.736;9.332;2022-07-21T08:49:55;10.57;;;9.57;;
20649;SDS011;10484;48.736;9.332;2022-07-21T08:52:22;8.67;;;7.87;;
20649;SDS011;10484;48.736;9.332;2022-07-21T08:54:47;10.73;;;8.00;;
20649;SDS011;10484;48.736;9.332;2022-07-21T08:57:13;7.97;;;7.23;;
20649;SDS011;10484;48.736;9.332;2022-07-21T08:59:39;7.00;;;6.50;;
20649;SDS011;10484;48.736;9.332;2022-07-21T09:02:05;8.10;;;7.40;;
20649;SDS011;10484;48.736;9.332;2022-07-21T09:04:31;7.67;;;6.87;;
20649;SDS011;10484;48.736;9.332;2022-07-21T09:07:02;8.57;;;7.77;;
20649;SDS011;10484;48.736;9.332;2022-07-21T09:09:30;7.70;;;7.10;;
20649;SDS011;10484;48.736;9.332;2022-07-21T09:11:57;7.43;;;6.63;;
20649;SDS011;10484;48.736;9.332;2022-07-21T09:14:25;7.03;;;6.43;;
20649;SDS011;10484;48.736;9.332;2022-07-21T09:16:53;6.70;;;6.10;;
20649;SDS011;10484;48.736;9.332;2022-07-21T09:19:31;9.20;;;6.60;;
20649;SDS011;10484;48.736;9.332;2022-07-21T09:22:02;5.57;;;5.00;;
20649;SDS011;10484;48.736;9.332;2022-07-21T09:27:14;6.63;;;6.03;;
20649;SDS011;10484;48.736;9.332;2022-07-21T09:29:49;6.63;;;6.07;;
20649;SDS011;10484;48.736;9.332;2022-07-21T09:34:53;5.63;;;5.13;;
20649;SDS011;10484;48.736;9.332;2022-07-21T09:37:23;5.73;;;5.23;;
20649;SDS011;10484;48.736;9.332;2022-07-21T09:39:53;6.10;;;5.70;;
20649;SDS011;10484;48.736;9.332;2022-07-21T09:42:21;5.60;;;5.10;;
20649;SDS011;10484;48.736;9.332;2022-07-21T09:44:49;5.90;;;5.30;;
20649;SDS011;10484;48.736;9.332;2022-07-21T09:47:18;5.63;;;5.07;;
20649;SDS011;10484;48.736;9.332;2022-07-21T09:49:45;6.07;;;5.57;;
20649;SDS011;10484;48.736;9.332;2022-07-21T09:52:21;6.00;;;5.50;;
20649;SDS011;10484;48.736;9.332;2022-07-21T09:54:48;8.67;;;5.47;;
20649;SDS011;10484;48.736;9.332;2022-07-21T09:57:18;6.73;;;5.40;;
20649;SDS011;10484;48.736;9.332;2022-07-21T09:59:45;6.00;;;5.40;;
20649;SDS011;10484;48.736;9.332;2022-07-21T10:02:17;5.47;;;4.97;;
20649;SDS011;10484;48.736;9.332;2022-07-21T10:04:46;4.60;;;4.10;;
20649;SDS011;10484;48.736;9.332;2022-07-21T10:07:15;5.23;;;4.70;;
20649;SDS011;10484;48.736;9.332;2022-07-21T10:09:42;5.23;;;4.73;;
20649;SDS011;10484;48.736;9.332;2022-07-21T10:12:08;5.57;;;4.20;;
20649;SDS011;10484;48.736;9.332;2022-07-21T10:14:34;5.57;;;5.07;;
20649;SDS011;10484;48.736;9.332;2022-07-21T10:17:01;6.20;;;5.70;;
20649;SDS011;10484;48.736;9.332;2022-07-21T10:19:28;6.00;;;5.50;;
20649;SDS011;10484;48.736;9.332;2022-07-21T10:22:22;5.20;;;4.70;;
20649;SDS011;10484;48.736;9.332;2022-07-21T10:25:07;4.97;;;4.57;;
20649;SDS011;10484;48.736;9.332;2022-07-21T10:27:33;4.80;;;4.40;;
20649;SDS011;10484;48.736;9.332;2022-07-21T10:29:59;5.70;;;5.20;;
20649;SDS011;10484;48.736;9.332;2022-07-21T10:32:32;5.70;;;5.30;;
20649;SDS011;10484;48.736;9.332;2022-07-21T10:35:02;5.53;;;5.13;;
20649;SDS011;10484;48.736;9.332;2022-07-21T10:37:48;6.20;;;5.70;;
20649;SDS011;10484;48.736;9.332;2022-07-21T10:45:33;5.83;;;5.43;;
20649;SDS011;10484;48.736;9.332;2022-07-21T10:48:04;6.50;;;5.47;;
20649;SDS011;10484;48.736;9.332;2022-07-21T10:50:35;5.83;;;5.30;;
20649;SDS011;10484;48.736;9.332;2022-07-21T10:53:03;5.80;;;5.30;;
20649;SDS011;10484;48.736;9.332;2022-07-21T10:55:31;4.73;;;4.30;;
20649;SDS011;10484;48.736;9.332;2022-07-21T11:00:49;5.53;;;4.47;;
20649;SDS011;10484;48.736;9.332;2022-07-21T11:03:20;5.20;;;4.90;;
20649;SDS011;10484;48.736;9.332;2022-07-21T11:08:41;4.40;;;4.10;;
20649;SDS011;10484;48.736;9.332;2022-07-21T11:21:55;4.73;;;4.33;;
20649;SDS011;10484;48.736;9.332;2022-07-21T11:24:22;4.60;;;4.20;;
20649;SDS011;10484;48.736;9.332;2022-07-21T11:26:56;5.33;;;4.90;;
20649;SDS011;10484;48.736;9.332;2022-07-21T11:29:30;4.30;;;3.90;;
20649;SDS011;10484;48.736;9.332;2022-07-21T11:31:57;5.00;;;4.50;;
20649;SDS011;10484;48.736;9.332;2022-07-21T11:34:35;4.87;;;4.47;;
20649;SDS011;10484;48.736;9.332;2022-07-21T11:37:07;6.80;;;5.03;;
20649;SDS011;10484;48.736;9.332;2022-07-21T11:39:34;4.73;;;4.43;;
20649;SDS011;10484;48.736;9.332;2022-07-21T11:42:07;6.77;;;5.10;;
20649;SDS011;10484;48.736;9.332;2022-07-21T11:44:36;11.33;;;5.27;;
20649;SDS011;10484;48.736;9.332;2022-07-21T11:47:03;9.43;;;5.20;;
20649;SDS011;10484;48.736;9.332;2022-07-21T11:49:30;6.17;;;4.40;;
20649;SDS011;10484;48.736;9.332;2022-07-21T11:51:58;4.60;;;4.13;;
20649;SDS011;10484;48.736;9.332;2022-07-21T11:57:00;5.13;;;4.63;;
20649;SDS011;10484;48.736;9.332;2022-07-21T11:59:27;4.17;;;3.77;;
20649;SDS011;10484;48.736;9.332;2022-07-21T12:01:55;4.57;;;4.17;;
20649;SDS011;10484;48.736;9.332;2022-07-21T12:04:29;4.83;;;4.43;;
20649;SDS011;10484;48.736;9.332;2022-07-21T12:06:57;5.40;;;4.90;;
20649;SDS011;10484;48.736;9.332;2022-07-21T12:09:24;6.20;;;5.70;;
20649;SDS011;10484;48.736;9.332;2022-07-21T12:11:50;5.40;;;4.90;;
20649;SDS011;10484;48.736;9.332;2022-07-21T12:14:16;12.47;;;5.63;;
20649;SDS011;10484;48.736;9.332;2022-07-21T12:16:52;6.43;;;5.83;;
20649;SDS011;10484;48.736;9.332;2022-07-21T12:19:18;6.13;;;5.40;;
20649;SDS011;10484;48.736;9.332;2022-07-21T12:21:46;5.53;;;5.03;;
20649;SDS011;10484;48.736;9.332;2022-07-21T12:24:17;5.07;;;4.67;;
20649;SDS011;10484;48.736;9.332;2022-07-21T12:26:44;5.33;;;4.93;;
20649;SDS011;10484;48.736;9.332;2022-07-21T12:29:32;4.83;;;4.43;;
20649;SDS011;10484;48.736;9.332;2022-07-21T12:32:00;5.40;;;5.00;;
20649;SDS011;10484;48.736;9.332;2022-07-21T12:34:26;6.03;;;5.43;;
20649;SDS011;10484;48.736;9.332;2022-07-21T12:36:51;7.87;;;5.37;;
20649;SDS011;10484;48.736;9.332;2022-07-21T12:39:18;5.20;;;4.50;;
20649;SDS011;10484;48.736;9.332;2022-07-21T12:42:05;5.10;;;4.70;;
20649;SDS011;10484;48.736;9.332;2022-07-21T12:44:32;4.47;;;4.07;;
20649;SDS011;10484;48.736;9.332;2022-07-21T12:47:12;5.00;;;4.50;;
20649;SDS011;10484;48.736;9.332;2022-07-21T12:52:20;6.13;;;4.37;;
20649;SDS011;10484;48.736;9.332;2022-07-21T12:54:45;4.30;;;4.00;;
20649;SDS011;10484;48.736;9.332;2022-07-21T12:57:11;5.20;;;4.80;;
20649;SDS011;10484;48.736;9.332;2022-07-21T12:59:37;4.80;;;4.40;;
20649;SDS011;10484;48.736;9.332;2022-07-21T13:02:02;4.93;;;4.43;;
20649;SDS011;10484;48.736;9.332;2022-07-21T13:04:28;4.60;;;4.20;;
20649;SDS011;10484;48.736;9.332;2022-07-21T13:06:54;4.13;;;3.77;;
20649;SDS011;10484;48.736;9.332;2022-07-21T13:09:19;4.87;;;4.40;;
20649;SDS011;10484;48.736;9.332;2022-07-21T13:11:45;4.30;;;4.00;;
20649;SDS011;10484;48.736;9.332;2022-07-21T13:14:12;4.93;;;4.50;;
20649;SDS011;10484;48.736;9.332;2022-07-21T13:16:38;5.23;;;4.83;;
20649;SDS011;10484;48.736;9.332;2022-07-21T13:19:04;5.33;;;4.90;;
20649;SDS011;10484;48.736;9.332;2022-07-21T13:21:31;5.70;;;5.20;;
20649;SDS011;10484;48.736;9.332;2022-07-21T13:23:57;5.70;;;5.30;;
20649;SDS011;10484;48.736;9.332;2022-07-21T13:26:22;6.23;;;5.73;;
20649;SDS011;10484;48.736;9.332;2022-07-21T13:28:49;6.50;;;5.93;;
20649;SDS011;10484;48.736;9.332;2022-07-21T13:31:15;5.50;;;5.00;;
20649;SDS011;10484;48.736;9.332;2022-07-21T13:33:40;6.00;;;5.60;;
20649;SDS011;10484;48.736;9.332;2022-07-21T13:36:07;5.80;;;5.30;;
20649;SDS011;10484;48.736;9.332;2022-07-21T13:38:33;5.93;;;5.33;;
20649;SDS011;10484;48.736;9.332;2022-07-21T13:40:59;7.27;;;5.27;;
20649;SDS011;10484;48.736;9.332;2022-07-21T13:43:26;6.13;;;5.63;;
20649;SDS011;10484;48.736;9.332;2022-07-21T13:45:51;6.33;;;5.73;;
20649;SDS011;10484;48.736;9.332;2022-07-21T13:48:17;6.10;;;5.50;;
20649;SDS011;10484;48.736;9.332;2022-07-21T13:50:43;6.13;;;5.63;;
20649;SDS011;10484;48.736;9.332;2022-07-21T13:53:08;6.47;;;5.90;;
20649;SDS011;10484;48.736;9.332;2022-07-21T13:55:34;6.00;;;5.57;;
20649;SDS011;10484;48.736;9.332;2022-07-21T13:58:00;7.70;;;5.63;;
20649;SDS011;10484;48.736;9.332;2022-07-21T14:00:26;5.80;;;5.27;;
20649;SDS011;10484;48.736;9.332;2022-07-21T14:02:52;6.07;;;5.57;;
20649;SDS011;10484;48.736;9.332;2022-07-21T14:05:17;6.70;;;6.10;;
20649;SDS011;10484;48.736;9.332;2022-07-21T14:07:43;5.80;;;5.30;;
20649;SDS011;10484;48.736;9.332;2022-07-21T14:10:09;5.90;;;5.50;;
20649;SDS011;10484;48.736;9.332;2022-07-21T14:12:35;6.70;;;5.80;;
20649;SDS011;10484;48.736;9.332;2022-07-21T14:15:01;6.27;;;5.77;;
20649;SDS011;10484;48.736;9.332;2022-07-21T14:17:27;7.30;;;6.70;;
20649;SDS011;10484;48.736;9.332;2022-07-21T14:19:53;6.00;;;5.50;;
20649;SDS011;10484;48.736;9.332;2022-07-21T14:22:19;8.00;;;5.50;;
20649;SDS011;10484;48.736;9.332;2022-07-21T14:24:46;7.33;;;6.17;;
20649;SDS011;10484;48.736;9.332;2022-07-21T14:27:31;5.23;;;4.83;;
20649;SDS011;10484;48.736;9.332;2022-07-21T14:29:57;6.20;;;5.70;;
20649;SDS011;10484;48.736;9.332;2022-07-21T14:32:23;5.20;;;4.80;;
20649;SDS011;10484;48.736;9.332;2022-07-21T14:34:49;6.83;;;6.23;;
20649;SDS011;10484;48.736;9.332;2022-07-21T14:37:16;5.63;;;5.17;;
20649;SDS011;10484;48.736;9.332;2022-07-21T14:39:43;6.70;;;6.07;;
20649;SDS011;10484;48.736;9.332;2022-07-21T14:42:13;5.60;;;5.17;;
20649;SDS011;10484;48.736;9.332;2022-07-21T14:44:39;8.43;;;6.23;;
20649;SDS011;10484;48.736;9.332;2022-07-21T14:47:05;5.50;;;5.00;;
20649;SDS011;10484;48.736;9.332;2022-07-21T14:49:32;5.47;;;5.07;;
20649;SDS011;10484;48.736;9.332;2022-07-21T14:51:58;6.20;;;5.70;;
20649;SDS011;10484;48.736;9.332;2022-07-21T14:54:24;5.53;;;5.10;;
20649;SDS011;10484;48.736;9.332;2022-07-21T14:56:49;5.67;;;5.27;;
20649;SDS011;10484;48.736;9.332;2022-07-21T14:59:15;5.63;;;5.23;;
20649;SDS011;10484;48.736;9.332;2022-07-21T15:01:41;5.20;;;4.80;;
20649;SDS011;10484;48.736;9.332;2022-07-21T15:04:06;5.20;;;4.77;;
20649;SDS011;10484;48.736;9.332;2022-07-21T15:06:32;5.87;;;5.37;;
20649;SDS011;10484;48.736;9.332;2022-07-21T15:08:58;5.40;;;5.00;;
20649;SDS011;10484;48.736;9.332;2022-07-21T15:11:24;5.53;;;5.13;;
20649;SDS011;10484;48.736;9.332;2022-07-21T15:13:50;5.50;;;5.10;;
20649;SDS011;10484;48.736;9.332;2022-07-21T15:16:16;5.37;;;4.97;;
20649;SDS011;10484;48.736;9.332;2022-07-21T15:18:42;5.57;;;5.07;;